createdAt,value
2022-09-15T00:01:18.629Z,100.00
2022-09-15T00:03:45.198Z,100.00
2022-09-15T00:06:12.525Z,100.00
2022-09-15T00:08:39.812Z,100.00
2022-09-15T00:11:24.174Z,100.00
2022-09-15T00:13:52.038Z,100.00
2022-09-15T00:16:20.388Z,100.00
2022-09-15T00:18:55.324Z,100.00
2022-09-15T00:21:26.112Z,100.00
2022-09-15T00:23:54.919Z,100.00
2022-09-15T00:26:26.787Z,100.00
2022-09-15T00:28:54.080Z,100.00
2022-09-15T00:31:23.817Z,100.00
2022-09-15T00:33:54.328Z,100.00
2022-09-15T00:36:22.495Z,100.00
2022-09-15T00:38:49.494Z,100.00
2022-09-15T00:41:18.541Z,100.00
2022-09-15T00:44:00.303Z,100.00
2022-09-15T00:46:40.430Z,100.00
2022-09-15T00:49:11.198Z,100.00
2022-09-15T00:51:48.293Z,100.00
2022-09-15T00:54:20.006Z,100.00
2022-09-15T00:56:51.355Z,100.00
2022-09-15T00:59:23.265Z,100.00
2022-09-15T01:01:58.596Z,100.00
2022-09-15T01:04:25.962Z,100.00
2022-09-15T01:06:58.698Z,100.00
2022-09-15T01:09:36.001Z,100.00
2022-09-15T01:12:03.528Z,100.00
2022-09-15T01:14:32.362Z,100.00
2022-09-15T01:17:15.335Z,100.00
2022-09-15T01:20:21.397Z,100.00
2022-09-15T01:23:31.357Z,100.00
2022-09-15T01:26:34.217Z,100.00
2022-09-15T01:29:22.827Z,100.00
2022-09-15T01:32:32.571Z,100.00
2022-09-15T01:35:35.218Z,100.00
2022-09-15T01:38:04.663Z,100.00
2022-09-15T01:40:57.929Z,100.00
2022-09-15T01:43:27.938Z,100.00
2022-09-15T01:46:01.316Z,100.00
2022-09-15T01:48:29.930Z,100.00
2022-09-15T01:51:00.401Z,100.00
2022-09-15T01:53:28.210Z,100.00
2022-09-15T01:56:10.477Z,100.00
2022-09-15T01:58:40.299Z,100.00
2022-09-15T02:01:22.168Z,100.00
2022-09-15T02:04:11.565Z,100.00
2022-09-15T02:06:45.702Z,100.00
2022-09-15T02:09:23.474Z,100.00
2022-09-15T02:12:12.426Z,100.00
2022-09-15T02:14:52.386Z,100.00
2022-09-15T02:17:21.326Z,100.00
2022-09-15T02:19:58.144Z,100.00
2022-09-15T02:22:30.067Z,100.00
2022-09-15T02:25:06.095Z,100.00
2022-09-15T02:27:38.871Z,100.00
2022-09-15T02:30:10.901Z,100.00
2022-09-15T02:32:41.089Z,100.00
2022-09-15T02:35:10.031Z,100.00
2022-09-15T02:37:40.108Z,100.00
2022-09-15T02:40:07.871Z,100.00
2022-09-15T02:42:36.807Z,100.00
2022-09-15T02:45:04.305Z,100.00
2022-09-15T02:47:32.087Z,100.00
2022-09-15T02:49:58.589Z,100.00
2022-09-15T02:52:30.438Z,100.00
2022-09-15T02:54:56.913Z,100.00
2022-09-15T02:57:24.093Z,100.00
2022-09-15T03:00:10.636Z,100.00
2022-09-15T03:02:37.466Z,100.00
2022-09-15T03:05:07.434Z,100.00
2022-09-15T03:07:38.788Z,100.00
2022-09-15T03:10:07.399Z,100.00
2022-09-15T03:12:38.786Z,100.00
2022-09-15T03:15:09.331Z,100.00
2022-09-15T03:17:41.914Z,100.00
2022-09-15T03:20:12.273Z,100.00
2022-09-15T03:22:39.240Z,100.00
2022-09-15T03:25:07.377Z,100.00
2022-09-15T03:27:34.869Z,100.00
2022-09-15T03:30:01.931Z,100.00
2022-09-15T03:32:28.658Z,100.00
2022-09-15T03:34:58.547Z,100.00
2022-09-15T03:37:25.958Z,100.00
2022-09-15T03:39:52.610Z,100.00
2022-09-15T03:42:29.694Z,100.00
2022-09-15T03:44:57.307Z,100.00
2022-09-15T03:47:23.776Z,100.00
2022-09-15T03:49:52.453Z,100.00
2022-09-15T03:52:18.991Z,100.00
2022-09-15T03:54:45.698Z,100.00
2022-09-15T03:57:12.362Z,100.00
2022-09-15T03:59:38.839Z,100.00
2022-09-15T04:02:05.547Z,100.00
2022-09-15T04:04:32.288Z,100.00
2022-09-15T04:06:59.031Z,100.00
2022-09-15T04:09:25.802Z,100.00
2022-09-15T04:11:52.672Z,100.00
2022-09-15T04:14:19.359Z,100.00
2022-09-15T04:16:45.904Z,100.00
2022-09-15T04:19:14.321Z,100.00
2022-09-15T04:21:40.845Z,100.00
2022-09-15T04:24:09.025Z,100.00
2022-09-15T04:26:38.779Z,100.00
2022-09-15T04:29:11.347Z,100.00
2022-09-15T04:31:37.889Z,100.00
2022-09-15T04:34:05.081Z,100.00
2022-09-15T04:36:31.858Z,100.00
2022-09-15T04:38:58.540Z,100.00
2022-09-15T04:41:28.165Z,100.00
2022-09-15T04:43:55.143Z,100.00
2022-09-15T04:46:21.952Z,100.00
2022-09-15T04:48:50.629Z,100.00
2022-09-15T04:51:20.538Z,100.00
2022-09-15T04:53:48.541Z,100.00
2022-09-15T04:56:20.495Z,100.00
2022-09-15T04:58:53.203Z,100.00
2022-09-15T05:01:29.279Z,100.00
2022-09-15T05:03:56.544Z,100.00
2022-09-15T05:06:28.028Z,100.00
2022-09-15T05:08:58.551Z,100.00
2022-09-15T05:11:28.300Z,100.00
2022-09-15T05:13:54.815Z,100.00
2022-09-15T05:16:28.351Z,100.00
2022-09-15T05:19:01.211Z,100.00
2022-09-15T05:21:28.039Z,100.00
2022-09-15T05:24:05.840Z,100.00
2022-09-15T05:26:32.671Z,100.00
2022-09-15T05:28:59.269Z,100.00
2022-09-15T05:31:28.512Z,100.00
2022-09-15T05:33:55.391Z,100.00
2022-09-15T05:36:25.418Z,100.00
2022-09-15T05:38:58.410Z,100.00
2022-09-15T05:41:26.925Z,100.00
2022-09-15T05:43:55.530Z,100.00
2022-09-15T05:46:24.294Z,100.00
2022-09-15T05:48:55.369Z,100.00
2022-09-15T05:51:22.305Z,100.00
2022-09-15T05:53:50.794Z,100.00
2022-09-15T05:56:18.455Z,100.00
2022-09-15T05:58:47.010Z,100.00
2022-09-15T06:01:26.600Z,100.00
2022-09-15T06:03:54.814Z,100.00
2022-09-15T06:06:22.415Z,100.00
2022-09-15T06:08:58.651Z,100.00
2022-09-15T06:11:28.945Z,100.00
2022-09-15T06:14:03.365Z,100.00
2022-09-15T06:16:33.618Z,100.00
2022-09-15T06:19:01.320Z,100.00
2022-09-15T06:21:30.580Z,100.00
2022-09-15T06:24:07.114Z,100.00
2022-09-15T06:26:37.437Z,100.00
2022-09-15T06:29:05.307Z,100.00
2022-09-15T06:31:33.498Z,100.00
2022-09-15T06:34:02.520Z,100.00
2022-09-15T06:36:30.359Z,100.00
2022-09-15T06:38:57.054Z,100.00
2022-09-15T06:41:32.945Z,100.00
2022-09-15T06:44:11.555Z,100.00
2022-09-15T06:46:40.373Z,100.00
2022-09-15T06:49:07.151Z,100.00
2022-09-15T06:51:35.642Z,100.00
2022-09-15T06:54:03.206Z,100.00
2022-09-15T06:56:32.467Z,100.00
2022-09-15T06:59:01.053Z,100.00
2022-09-15T07:01:30.104Z,100.00
2022-09-15T07:03:58.547Z,100.00
2022-09-15T07:06:28.444Z,100.00
2022-09-15T07:08:57.273Z,100.00
2022-09-15T07:11:24.163Z,100.00
2022-09-15T07:13:51.379Z,100.00
2022-09-15T07:16:24.989Z,100.00
2022-09-15T07:18:54.302Z,100.00
2022-09-15T07:21:24.777Z,100.00
2022-09-15T07:23:53.514Z,100.00
2022-09-15T07:26:22.885Z,100.00
2022-09-15T07:28:51.649Z,100.00
2022-09-15T07:31:26.106Z,100.00
2022-09-15T07:33:53.436Z,100.00
2022-09-15T07:36:20.620Z,100.00
2022-09-15T07:38:49.245Z,100.00
2022-09-15T07:41:18.772Z,100.00
2022-09-15T07:43:47.542Z,100.00
2022-09-15T07:46:15.147Z,100.00
2022-09-15T07:48:45.444Z,100.00
2022-09-15T07:51:12.376Z,100.00
2022-09-15T07:53:44.209Z,100.00
2022-09-15T07:56:10.833Z,100.00
2022-09-15T07:58:37.295Z,100.00
2022-09-15T08:01:14.800Z,100.00
2022-09-15T08:03:43.184Z,100.00
2022-09-15T08:06:10.541Z,100.00
2022-09-15T08:08:39.022Z,100.00
2022-09-15T08:11:18.525Z,100.00
2022-09-15T08:13:48.687Z,100.00
2022-09-15T08:16:19.200Z,100.00
2022-09-15T08:18:46.393Z,100.00
2022-09-15T08:21:21.093Z,100.00
2022-09-15T08:24:05.800Z,100.00
2022-09-15T08:26:32.578Z,100.00
2022-09-15T08:28:59.451Z,100.00
2022-09-15T08:31:26.299Z,100.00
2022-09-15T08:33:57.635Z,100.00
2022-09-15T08:36:27.866Z,100.00
2022-09-15T08:38:54.709Z,100.00
2022-09-15T08:41:33.608Z,100.00
2022-09-15T08:44:25.433Z,100.00
2022-09-15T08:47:05.809Z,100.00
2022-09-15T08:49:51.512Z,100.00
2022-09-15T08:52:32.564Z,100.00
2022-09-15T08:55:04.717Z,100.00
2022-09-15T08:57:31.428Z,100.00
2022-09-15T09:00:01.388Z,100.00
2022-09-15T09:02:55.505Z,100.00
2022-09-15T09:05:30.441Z,100.00
2022-09-15T09:08:33.919Z,100.00
2022-09-15T09:11:13.586Z,100.00
2022-09-15T09:13:59.390Z,100.00
2022-09-15T09:16:46.398Z,100.00
2022-09-15T09:19:53.068Z,100.00
2022-09-15T09:22:27.615Z,100.00
2022-09-15T09:24:58.245Z,100.00
2022-09-15T09:27:30.647Z,100.00
2022-09-15T09:30:07.568Z,100.00
2022-09-15T09:32:45.376Z,100.00
2022-09-15T09:35:32.162Z,100.00
2022-09-15T09:38:00.292Z,100.00
2022-09-15T09:40:28.259Z,100.00
2022-09-15T09:42:54.781Z,100.00
2022-09-15T09:45:29.041Z,100.00
2022-09-15T09:48:02.108Z,100.00
2022-09-15T09:50:37.804Z,100.00
2022-09-15T09:53:18.769Z,100.00
2022-09-15T09:55:46.331Z,100.00
2022-09-15T09:58:18.501Z,100.00
2022-09-15T10:00:45.960Z,100.00
2022-09-15T10:03:20.487Z,100.00
2022-09-15T10:06:02.820Z,100.00
2022-09-15T10:08:29.639Z,100.00
2022-09-15T10:11:05.887Z,100.00
2022-09-15T10:13:51.645Z,100.00
2022-09-15T10:16:19.604Z,100.00
2022-09-15T10:18:53.582Z,100.00
2022-09-15T10:21:26.498Z,100.00
2022-09-15T10:23:53.102Z,100.00
2022-09-15T10:26:33.731Z,100.00
2022-09-15T10:29:15.391Z,100.00
2022-09-15T10:31:46.024Z,100.00
2022-09-15T10:34:31.659Z,100.00
2022-09-15T10:37:33.663Z,100.00
2022-09-15T10:40:04.615Z,100.00
2022-09-15T10:42:43.846Z,100.00
2022-09-15T10:45:13.081Z,100.00
2022-09-15T10:47:53.510Z,100.00
2022-09-15T10:50:45.105Z,100.00
2022-09-15T10:53:38.727Z,100.00
2022-09-15T10:56:24.289Z,100.00
2022-09-15T10:59:42.359Z,100.00
2022-09-15T11:02:43.978Z,100.00
2022-09-15T11:05:20.595Z,100.00
2022-09-15T11:08:14.272Z,100.00
2022-09-15T11:10:50.427Z,100.00
2022-09-15T11:13:44.135Z,100.00
2022-09-15T11:16:40.667Z,100.00
2022-09-15T11:19:07.223Z,100.00
2022-09-15T11:21:46.238Z,100.00
2022-09-15T11:24:31.318Z,100.00
2022-09-15T11:27:02.611Z,100.00
2022-09-15T11:29:42.410Z,100.00
2022-09-15T11:32:24.678Z,100.00
2022-09-15T11:34:58.873Z,100.00
2022-09-15T11:37:37.588Z,100.00
2022-09-15T11:42:59.888Z,100.00
2022-09-15T11:45:37.719Z,100.00
2022-09-15T11:48:17.860Z,100.00
2022-09-15T11:50:46.997Z,100.00
2022-09-15T11:53:27.620Z,100.00
2022-09-15T11:56:00.110Z,100.00
2022-09-15T11:59:00.058Z,100.00
2022-09-15T12:01:44.060Z,100.00
2022-09-15T12:04:35.487Z,100.00
2022-09-15T12:07:18.708Z,98.30
2022-09-15T12:09:47.442Z,97.59
2022-09-15T12:12:20.513Z,96.49
2022-09-15T12:14:51.214Z,96.96
2022-09-15T12:17:29.670Z,96.83
2022-09-15T12:20:18.431Z,96.84
2022-09-15T12:23:11.319Z,96.86
2022-09-15T12:26:02.822Z,99.49
2022-09-15T12:28:54.274Z,99.82
2022-09-15T12:31:23.757Z,98.85
2022-09-15T12:34:00.319Z,99.71
2022-09-15T12:36:45.704Z,100.00
2022-09-15T12:39:39.702Z,100.00
2022-09-15T12:42:15.321Z,100.00
2022-09-15T12:44:44.778Z,94.41
2022-09-15T12:47:35.440Z,98.55
2022-09-15T12:50:07.935Z,98.71
2022-09-15T12:52:44.432Z,96.51
2022-09-15T12:55:37.659Z,96.29
2022-09-15T12:58:16.222Z,98.28
2022-09-15T13:01:13.895Z,98.42
2022-09-15T13:03:58.091Z,97.88
2022-09-15T13:06:29.065Z,98.20
2022-09-15T13:09:03.431Z,97.69
2022-09-15T13:14:19.260Z,90.72
2022-09-15T13:16:52.232Z,89.10
2022-09-15T13:19:33.333Z,90.69
2022-09-15T13:22:11.823Z,87.06
2022-09-15T13:25:15.540Z,86.81
2022-09-15T13:27:52.427Z,87.86
2022-09-15T13:30:42.510Z,86.70
2022-09-15T13:33:15.858Z,87.26
2022-09-15T13:36:01.429Z,84.67
2022-09-15T13:38:46.426Z,86.26
2022-09-15T13:41:34.327Z,88.02
2022-09-15T13:44:28.812Z,88.04
2022-09-15T13:47:06.126Z,85.90
2022-09-15T13:50:15.088Z,88.01
2022-09-15T13:53:05.561Z,85.92
2022-09-15T13:55:38.309Z,86.86
2022-09-15T14:01:03.301Z,88.17
2022-09-15T14:03:40.491Z,88.98
2022-09-15T14:06:13.752Z,89.65
2022-09-15T14:08:44.378Z,90.50
2022-09-15T14:11:15.130Z,91.46
2022-09-15T14:13:46.302Z,92.41
2022-09-15T14:16:23.625Z,93.16
2022-09-15T14:18:53.229Z,94.82
2022-09-15T14:21:26.837Z,96.41
2022-09-15T14:23:57.508Z,96.54
2022-09-15T14:26:27.708Z,97.32
2022-09-15T14:28:59.929Z,97.64
2022-09-15T14:31:39.054Z,99.09
2022-09-15T14:34:29.608Z,99.90
2022-09-15T14:37:02.425Z,100.00
2022-09-15T14:39:29.145Z,100.00
2022-09-15T14:41:57.416Z,100.00
2022-09-15T14:47:43.426Z,100.00
2022-09-15T14:50:19.339Z,100.00
2022-09-15T14:53:05.449Z,100.00
2022-09-15T14:55:36.565Z,100.00
2022-09-15T14:58:28.754Z,100.00
2022-09-15T15:01:08.017Z,100.00
2022-09-15T15:03:37.342Z,100.00
2022-09-15T15:06:30.277Z,100.00
2022-09-15T15:09:09.693Z,100.00
2022-09-15T15:11:38.977Z,100.00
2022-09-15T15:14:08.339Z,100.00
2022-09-15T15:16:37.449Z,100.00
2022-09-15T15:22:14.904Z,100.00
2022-09-15T15:24:44.245Z,100.00
2022-09-15T15:27:36.750Z,100.00
2022-09-15T15:30:46.468Z,100.00
2022-09-15T15:33:26.115Z,100.00
2022-09-15T15:36:07.377Z,100.00
2022-09-15T15:38:46.330Z,100.00
2022-09-15T15:41:24.389Z,100.00
2022-09-15T15:44:08.313Z,100.00
2022-09-15T15:46:49.202Z,100.00
2022-09-15T15:49:18.345Z,100.00
2022-09-15T15:51:44.979Z,100.00
2022-09-15T15:54:11.479Z,100.00
2022-09-15T15:56:38.228Z,100.00
2022-09-15T15:59:07.043Z,100.00
2022-09-15T16:01:33.651Z,100.00
2022-09-15T16:04:02.191Z,100.00
2022-09-15T16:06:28.787Z,100.00
2022-09-15T16:08:58.141Z,100.00
2022-09-15T16:11:26.500Z,100.00
2022-09-15T16:13:53.639Z,100.00
2022-09-15T16:16:22.858Z,100.00
2022-09-15T16:18:50.323Z,100.00
2022-09-15T16:21:28.797Z,100.00
2022-09-15T16:23:57.512Z,100.00
2022-09-15T16:26:24.959Z,100.00
2022-09-15T16:28:54.532Z,100.00
2022-09-15T16:31:22.802Z,100.00
2022-09-15T16:33:51.781Z,100.00
2022-09-15T16:36:18.592Z,100.00
2022-09-15T16:38:47.125Z,100.00
2022-09-15T16:41:17.140Z,100.00
2022-09-15T16:43:44.641Z,100.00
2022-09-15T16:46:17.738Z,100.00
2022-09-15T16:48:47.099Z,100.00
2022-09-15T16:51:25.269Z,100.00
2022-09-15T16:53:56.249Z,100.00
2022-09-15T16:56:22.785Z,100.00
2022-09-15T16:58:59.497Z,100.00
2022-09-15T17:01:30.723Z,100.00
2022-09-15T17:03:57.768Z,100.00
2022-09-15T17:06:24.303Z,100.00
2022-09-15T17:08:51.069Z,100.00
2022-09-15T17:11:19.883Z,100.00
2022-09-15T17:13:46.976Z,100.00
2022-09-15T17:16:17.427Z,100.00
2022-09-15T17:18:43.964Z,100.00
2022-09-15T17:21:11.814Z,100.00
2022-09-15T17:23:42.749Z,100.00
2022-09-15T17:26:17.073Z,100.00
2022-09-15T17:28:43.930Z,100.00
2022-09-15T17:31:22.858Z,100.00
2022-09-15T17:33:55.804Z,100.00
2022-09-15T17:36:22.572Z,100.00
2022-09-15T17:38:50.911Z,100.00
2022-09-15T17:41:19.575Z,100.00
2022-09-15T17:43:46.830Z,100.00
2022-09-15T17:46:13.694Z,100.00
2022-09-15T17:48:44.611Z,100.00
2022-09-15T17:51:18.675Z,100.00
2022-09-15T17:53:47.041Z,100.00
2022-09-15T17:56:13.746Z,100.00
2022-09-15T17:58:42.440Z,100.00
2022-09-15T18:01:12.639Z,100.00
2022-09-15T18:03:39.372Z,100.00
2022-09-15T18:06:08.322Z,100.00
2022-09-15T18:08:36.163Z,100.00
2022-09-15T18:11:04.646Z,100.00
2022-09-15T18:13:31.774Z,100.00
2022-09-15T18:16:04.117Z,100.00
2022-09-15T18:18:30.642Z,100.00
2022-09-15T18:21:00.423Z,100.00
2022-09-15T18:23:30.747Z,100.00
2022-09-15T18:25:57.649Z,100.00
2022-09-15T18:28:36.572Z,100.00
2022-09-15T18:31:03.850Z,100.00
2022-09-15T18:33:33.589Z,100.00
2022-09-15T18:36:02.313Z,100.00
2022-09-15T18:38:28.868Z,100.00
2022-09-15T18:40:57.792Z,100.00
2022-09-15T18:43:28.808Z,100.00
2022-09-15T18:46:01.691Z,100.00
2022-09-15T18:48:29.194Z,100.00
2022-09-15T18:50:55.898Z,100.00
2022-09-15T18:53:24.780Z,100.00
2022-09-15T18:55:51.376Z,100.00
2022-09-15T18:58:19.344Z,100.00
2022-09-15T19:00:46.241Z,100.00
2022-09-15T19:03:14.211Z,100.00
2022-09-15T19:05:48.953Z,100.00
2022-09-15T19:08:15.567Z,100.00
2022-09-15T19:10:44.144Z,100.00
2022-09-15T19:13:17.315Z,100.00
2022-09-15T19:15:44.269Z,100.00
2022-09-15T19:18:11.002Z,100.00
2022-09-15T19:20:37.578Z,100.00
2022-09-15T19:23:04.050Z,100.00
2022-09-15T19:25:30.561Z,100.00
2022-09-15T19:27:57.118Z,100.00
2022-09-15T19:30:23.808Z,100.00
2022-09-15T19:32:50.321Z,100.00
2022-09-15T19:35:16.855Z,100.00
2022-09-15T19:37:43.374Z,100.00
2022-09-15T19:40:12.957Z,100.00
2022-09-15T19:42:41.657Z,100.00
2022-09-15T19:45:10.466Z,100.00
2022-09-15T19:47:37.553Z,100.00
2022-09-15T19:50:08.211Z,100.00
2022-09-15T19:52:35.843Z,100.00
2022-09-15T19:55:03.166Z,100.00
2022-09-15T19:57:29.819Z,100.00
2022-09-15T19:59:58.661Z,100.00
2022-09-15T20:02:25.256Z,100.00
2022-09-15T20:04:53.253Z,100.00
2022-09-15T20:07:19.746Z,100.00
2022-09-15T20:09:47.485Z,100.00
2022-09-15T20:12:14.068Z,100.00
2022-09-15T20:14:41.033Z,100.00
2022-09-15T20:17:07.612Z,100.00
2022-09-15T20:19:34.320Z,100.00
2022-09-15T20:22:02.671Z,100.00
2022-09-15T20:24:29.235Z,100.00
2022-09-15T20:26:56.398Z,100.00
2022-09-15T20:29:23.837Z,100.00
2022-09-15T20:31:50.607Z,100.00
2022-09-15T20:34:24.963Z,100.00
2022-09-15T20:36:51.463Z,100.00
2022-09-15T20:39:22.055Z,100.00
2022-09-15T20:41:48.924Z,100.00
2022-09-15T20:44:16.037Z,100.00
2022-09-15T20:46:42.849Z,100.00
2022-09-15T20:49:12.395Z,100.00
2022-09-15T20:51:39.148Z,100.00
2022-09-15T20:54:05.917Z,100.00
2022-09-15T20:56:37.164Z,100.00
2022-09-15T20:59:06.055Z,100.00
2022-09-15T21:01:36.328Z,100.00
2022-09-15T21:04:03.919Z,100.00
2022-09-15T21:06:31.616Z,100.00
2022-09-15T21:08:58.650Z,100.00
2022-09-15T21:11:28.528Z,100.00
2022-09-15T21:13:55.552Z,100.00
2022-09-15T21:16:25.710Z,100.00
2022-09-15T21:18:54.449Z,100.00
2022-09-15T21:21:30.040Z,100.00
2022-09-15T21:24:02.130Z,100.00
2022-09-15T21:26:56.323Z,100.00
2022-09-15T21:29:25.146Z,100.00
2022-09-15T21:31:51.965Z,100.00
2022-09-15T21:34:18.513Z,100.00
2022-09-15T21:36:47.303Z,100.00
2022-09-15T21:39:13.782Z,100.00
2022-09-15T21:41:40.328Z,100.00
2022-09-15T21:44:07.280Z,100.00
2022-09-15T21:46:33.875Z,100.00
2022-09-15T21:49:00.349Z,100.00
2022-09-15T21:51:31.435Z,100.00
2022-09-15T21:53:59.602Z,100.00
2022-09-15T21:56:27.805Z,100.00
2022-09-15T21:59:00.974Z,100.00
2022-09-15T22:01:30.625Z,100.00
2022-09-15T22:03:59.158Z,100.00
2022-09-15T22:06:33.477Z,100.00
2022-09-15T22:09:07.358Z,100.00
2022-09-15T22:11:39.267Z,100.00
2022-09-15T22:14:08.357Z,100.00
2022-09-15T22:16:37.336Z,100.00
2022-09-15T22:19:07.365Z,100.00
2022-09-15T22:21:36.949Z,100.00
2022-09-15T22:24:05.337Z,100.00
2022-09-15T22:26:39.700Z,100.00
2022-09-15T22:29:06.733Z,100.00
2022-09-15T22:31:35.504Z,100.00
2022-09-15T22:34:04.308Z,100.00
2022-09-15T22:36:31.625Z,100.00
2022-09-15T22:39:04.416Z,100.00
2022-09-15T22:41:35.650Z,100.00
2022-09-15T22:44:03.408Z,100.00
2022-09-15T22:46:30.202Z,100.00
2022-09-15T22:48:56.942Z,100.00
2022-09-15T22:51:23.599Z,100.00
2022-09-15T22:53:54.661Z,100.00
2022-09-15T22:56:21.671Z,100.00
2022-09-15T22:58:49.564Z,100.00
2022-09-15T23:01:19.154Z,100.00
2022-09-15T23:03:50.996Z,100.00
2022-09-15T23:06:17.770Z,100.00
2022-09-15T23:08:44.499Z,100.00
2022-09-15T23:11:15.473Z,100.00
2022-09-15T23:13:42.012Z,100.00
2022-09-15T23:16:09.736Z,100.00
2022-09-15T23:18:39.263Z,100.00
2022-09-15T23:21:08.773Z,100.00
2022-09-15T23:23:37.047Z,100.00
2022-09-15T23:26:07.308Z,100.00
2022-09-15T23:28:34.408Z,100.00
2022-09-15T23:31:01.388Z,100.00
2022-09-15T23:33:33.262Z,100.00
2022-09-15T23:36:07.047Z,100.00
2022-09-15T23:38:40.659Z,100.00
2022-09-15T23:41:10.029Z,100.00
2022-09-15T23:43:36.609Z,100.00
2022-09-15T23:46:09.979Z,100.00
2022-09-15T23:48:36.833Z,100.00
2022-09-15T23:51:04.105Z,100.00
2022-09-15T23:53:32.431Z,100.00
2022-09-15T23:55:59.041Z,100.00
2022-09-15T23:58:26.086Z,100.00
